Worland, WY

6:38 PM MDT on July 24, 2017 (GMT -0600)
North Worland | | Change Station
Active Advisory: Special Statement

Elev 4049 ft 44.03 °N, 107.94 °W | Updated 31 seconds ago

Clear
Clear
92.5 °F
Feels Like 90 °F
N
3.0
Wind Variable Wind from ESE
Gusts 6.0 mph

Today
High -- | Low -- °F
--% Chance of Precip.
Yesterday
High -- | Low -- °F
Precip. -- in
Pressure 29.67 in
Visibility 10.0 miles
Clouds Clear
Heat Index 90 °F
Dew Point 54 °F
Humidity 27%
Rainfall 0.00 in
Snow Depth Not available.
5:51 AM 8:44 PM
Waxing Crescent, 4% visible
METAR KWRL 242353Z AUTO 03009KT 10SM CLR 37/01 A2982 RMK AO2 SLP046 T03720011 10378 20339 58015
Pressure 29.67 in
Visibility 10.0 miles
Clouds Clear
Heat Index 90 °F
Dew Point 54 °F
Humidity 27%
Rainfall 0.00 in
Snow Depth Not available.
5:51 AM 8:44 PM
Waxing Crescent, 4% visible
METAR KWRL 242353Z AUTO 03009KT 10SM CLR 37/01 A2982 RMK AO2 SLP046 T03720011 10378 20339 58015

Get Your Daily Forecast Email!

Thanks for signing up!

Be on the lookout for a verification email in your inbox.

You'll start receiving severe weather alerts in your inbox..

×

10-Day Weather Forecast

Almanac

Astronomy

Jul. 24, 2017 Rise Set
Actual Time
Civil Twilight
Nautical Twilight
Astronomical Twilight
Moon
Length of Visible Light
Length of Day
Tomorrow will be .
, % of the Moon is Illuminated

Today's Extremes

State Highs State Lows

Community

WunderPhotos

Category 6

Welcome to Category 6. This is the collective home for Weather Underground's featured writeups by Dr. Jeff Masters (right), Bob Henson (left), Chris Burt, and other regular contributors.

Nearby

Air Quality

  Air Quality AQ Index Pollutant
Not available.

Snow Depth

Station Depth Elevation

Earthquake Activity

City Distance Mag. Time & Date
Minimum magnitude displayed is 2.5.

Coastal Water Temperatures

Place Temperature

Stations

Nearby Weather Stations

Station Location Temp. Windchill Dew Point Humidity Wind Precip. Elev Updated Type
                   

Watches & Warnings

Special Statement
Issued: 5:58 PM MDT Jul. 24, 2017 – National Weather Service

Showers and isolated thunderstorms will move north of the area
through 800 PM. There will outflow wind gusts from the northwest
or north between 700 PM and 800 PM. Wind speeds of 35 to 45 mph
will be common with brief higher gusts possible. There will be no
rain across the area, just the outflow wind gusts, lasting for
about an hour once it occurs.